createdAt,value
2018-05-11T00:03:30.829Z,11.87
2018-05-11T00:08:59.747Z,7.30
2018-05-11T00:14:27.889Z,10.70
2018-05-11T00:19:56.798Z,6.43
2018-05-11T00:25:24.925Z,14.53
2018-05-11T00:30:53.132Z,7.57
2018-05-11T00:36:21.263Z,8.60
2018-05-11T00:41:49.379Z,8.77
2018-05-11T00:47:17.514Z,7.13
2018-05-11T00:52:46.415Z,6.83
2018-05-11T00:58:14.546Z,6.83
2018-05-11T01:03:42.685Z,11.73
2018-05-11T01:09:11.593Z,12.07
2018-05-11T01:14:39.723Z,10.30
2018-05-11T01:20:07.903Z,9.10
2018-05-11T01:25:36.036Z,12.63
2018-05-11T01:31:04.230Z,12.23
2018-05-11T01:36:32.407Z,14.77
2018-05-11T01:42:00.539Z,11.40
2018-05-11T01:47:29.454Z,13.33
2018-05-11T01:52:57.596Z,11.50
2018-05-11T01:58:26.492Z,13.50
2018-05-11T02:03:54.628Z,17.20
2018-05-11T02:09:22.775Z,16.93
2018-05-11T02:14:51.673Z,15.33
2018-05-11T02:20:19.932Z,14.67
2018-05-11T02:25:48.367Z,18.97
2018-05-11T02:31:16.516Z,18.93
2018-05-11T02:36:44.660Z,12.43
2018-05-11T02:42:13.103Z,14.23
2018-05-11T02:47:42.035Z,12.87
2018-05-11T02:53:10.154Z,13.87
2018-05-11T02:58:38.306Z,13.90
2018-05-11T03:04:07.253Z,11.93
2018-05-11T03:09:35.400Z,16.40
2018-05-11T03:15:03.549Z,16.70
2018-05-11T03:20:31.696Z,12.93
2018-05-11T03:26:00.647Z,14.63
2018-05-11T03:31:29.563Z,12.97
2018-05-11T03:36:57.690Z,11.90
2018-05-11T03:42:26.591Z,19.93
2018-05-11T03:47:54.723Z,16.00
2018-05-11T03:53:23.985Z,12.50
2018-05-11T04:04:43.429Z,13.00
2018-05-11T04:10:12.517Z,12.57
2018-05-11T04:15:41.424Z,14.23
2018-05-11T04:21:09.555Z,10.27
2018-05-11T04:26:37.704Z,15.50
2018-05-11T04:32:06.628Z,9.43
2018-05-11T04:37:35.570Z,12.23
2018-05-11T04:43:04.520Z,9.37
2018-05-11T04:48:32.669Z,11.77
2018-05-11T04:54:00.802Z,9.50
2018-05-11T04:59:28.957Z,12.57
2018-05-11T05:04:57.116Z,16.40
2018-05-11T05:10:25.247Z,9.23
2018-05-11T05:15:53.394Z,12.50
2018-05-11T05:21:21.520Z,8.80
2018-05-11T05:26:49.665Z,11.40
2018-05-11T05:32:18.696Z,8.57
2018-05-11T05:37:46.839Z,7.53
2018-05-11T05:43:14.973Z,6.60
2018-05-11T05:48:43.123Z,9.20
2018-05-11T05:54:11.258Z,8.67
2018-05-11T05:59:39.406Z,10.90
2018-05-11T06:05:11.265Z,7.80
2018-05-11T06:10:39.631Z,10.73
2018-05-11T06:16:07.893Z,10.73
2018-05-11T06:21:36.072Z,11.17
2018-05-11T06:27:05.000Z,18.47
2018-05-11T06:32:33.917Z,15.73
2018-05-11T06:38:02.240Z,16.13
2018-05-11T06:43:31.188Z,12.60
2018-05-11T06:48:59.338Z,22.63
2018-05-11T06:54:28.261Z,15.27
2018-05-11T06:59:57.173Z,14.53
2018-05-11T07:05:25.321Z,17.43
2018-05-11T07:10:54.241Z,20.63
2018-05-11T07:16:22.406Z,18.43
2018-05-11T07:21:50.555Z,19.50
2018-05-11T07:27:18.697Z,18.40
2018-05-11T07:32:46.857Z,17.37
2018-05-11T07:38:15.007Z,18.47
2018-05-11T07:43:43.152Z,25.67
2018-05-11T07:49:11.305Z,15.70
2018-05-11T07:54:40.232Z,18.50
2018-05-11T08:00:09.201Z,15.23
2018-05-11T08:05:37.361Z,18.77
2018-05-11T08:11:05.558Z,16.67
2018-05-11T08:16:33.710Z,15.03
2018-05-11T08:22:01.911Z,16.80
2018-05-11T08:27:30.069Z,19.60
2018-05-11T08:32:58.208Z,13.60
2018-05-11T08:38:26.349Z,22.77
2018-05-11T08:43:54.508Z,14.77
2018-05-11T08:49:22.681Z,14.63
2018-05-11T08:54:50.813Z,16.10
2018-05-11T09:00:19.725Z,18.40
2018-05-11T09:05:47.860Z,18.90
2018-05-11T09:11:16.008Z,16.47
2018-05-11T09:16:44.174Z,23.47
2018-05-11T09:22:13.097Z,16.13
2018-05-11T09:27:41.241Z,18.03
2018-05-11T09:33:10.175Z,16.70
2018-05-11T09:38:39.109Z,17.03
2018-05-11T09:44:08.015Z,21.07
2018-05-11T09:49:36.255Z,14.07
2018-05-11T09:55:04.348Z,11.33
2018-05-11T10:00:32.521Z,14.20
2018-05-11T10:06:00.685Z,21.27
2018-05-11T10:11:28.841Z,18.13
2018-05-11T10:16:57.751Z,13.23
2018-05-11T10:22:25.905Z,17.97
2018-05-11T10:27:54.829Z,13.87
2018-05-11T10:33:23.766Z,15.70
2018-05-11T10:38:52.694Z,16.47
2018-05-11T10:44:20.849Z,16.60
2018-05-11T10:49:48.988Z,15.80
2018-05-11T10:55:17.119Z,18.63
2018-05-11T11:00:45.262Z,14.27
2018-05-11T11:06:13.416Z,14.20
2018-05-11T11:11:42.325Z,22.93
2018-05-11T11:17:11.484Z,20.80
2018-05-11T11:22:40.408Z,16.77
2018-05-11T11:28:08.601Z,16.43
2018-05-11T11:33:36.770Z,18.57
2018-05-11T11:39:06.604Z,17.37
2018-05-11T11:44:34.793Z,18.70
2018-05-11T11:50:02.998Z,21.50
2018-05-11T11:55:31.175Z,15.73
2018-05-11T12:01:00.101Z,14.43
2018-05-11T12:06:28.253Z,18.53
2018-05-11T12:11:56.414Z,16.60
2018-05-11T12:17:24.586Z,17.80
2018-05-11T12:22:53.510Z,22.40
2018-05-11T12:28:21.665Z,18.30
2018-05-11T12:33:49.809Z,18.03
2018-05-11T12:39:18.737Z,16.87
2018-05-11T12:44:46.890Z,16.13
2018-05-11T12:50:15.038Z,18.70
2018-05-11T12:55:43.969Z,30.87
2018-05-11T13:01:12.176Z,19.40
2018-05-11T13:06:40.325Z,18.80
2018-05-11T13:12:09.238Z,19.30
2018-05-11T13:17:37.407Z,18.40
2018-05-11T13:23:06.346Z,20.60
2018-05-11T13:28:34.516Z,19.53
2018-05-11T13:34:03.437Z,19.23
2018-05-11T13:39:31.617Z,20.10
2018-05-11T13:44:59.785Z,22.93
2018-05-11T13:50:27.927Z,21.03
2018-05-11T13:55:56.853Z,17.73
2018-05-11T14:01:25.000Z,18.13
2018-05-11T14:06:53.155Z,20.77
2018-05-11T14:12:21.288Z,16.17
2018-05-11T14:17:49.468Z,12.33
2018-05-11T14:23:18.380Z,13.57
2018-05-11T14:28:47.331Z,18.80
2018-05-11T14:34:16.285Z,14.50
2018-05-11T14:39:44.438Z,13.30
2018-05-11T14:45:12.585Z,14.20
2018-05-11T14:50:40.737Z,17.13
2018-05-11T14:56:08.879Z,12.23
2018-05-11T15:01:37.026Z,11.50
2018-05-11T15:07:05.997Z,16.80
2018-05-11T15:12:34.941Z,15.10
2018-05-11T15:18:03.241Z,14.93
2018-05-11T15:23:31.325Z,15.43
2018-05-11T15:28:59.493Z,17.80
2018-05-11T15:34:28.406Z,14.00
2018-05-11T15:39:56.558Z,13.83
2018-05-11T15:45:25.482Z,18.27
2018-05-11T15:50:54.387Z,13.03
2018-05-11T15:56:22.526Z,18.20
2018-05-11T16:01:50.668Z,17.50
2018-05-11T16:07:19.586Z,14.30
2018-05-11T16:12:47.882Z,14.50
2018-05-11T16:18:15.896Z,14.20
2018-05-11T16:23:44.050Z,11.33
2018-05-11T16:29:12.194Z,19.10
2018-05-11T16:34:40.346Z,10.90
2018-05-11T16:40:08.557Z,13.43
2018-05-11T16:45:36.751Z,14.23
2018-05-11T16:51:04.941Z,15.17
2018-05-11T16:56:33.852Z,12.20
2018-05-11T17:02:02.029Z,11.53
2018-05-11T17:07:30.159Z,14.23
2018-05-11T17:12:58.324Z,11.87
2018-05-11T17:18:26.475Z,12.13
2018-05-11T17:23:55.388Z,10.73
2018-05-11T17:29:23.560Z,11.27
2018-05-11T17:34:52.476Z,19.83
2018-05-11T17:40:21.444Z,9.53
2018-05-11T17:45:49.594Z,9.40
2018-05-11T17:51:17.732Z,10.60
2018-05-11T17:56:46.629Z,9.70
2018-05-11T18:02:14.776Z,9.30
2018-05-11T18:07:42.929Z,10.17
2018-05-11T18:13:11.089Z,10.53
2018-05-11T18:18:39.258Z,10.77
2018-05-11T18:24:08.220Z,15.90
2018-05-11T18:29:36.464Z,12.50
2018-05-11T18:35:04.638Z,9.70
2018-05-11T18:40:33.543Z,11.00
2018-05-11T18:46:01.722Z,18.27
2018-05-11T18:51:29.954Z,13.00
2018-05-11T18:56:58.823Z,9.13
2018-05-11T19:02:26.982Z,12.57
2018-05-11T19:07:55.923Z,13.50
2018-05-11T19:13:24.072Z,11.77
2018-05-11T19:18:52.213Z,12.00
2018-05-11T19:24:22.317Z,11.47
2018-05-11T19:29:51.226Z,11.00
2018-05-11T19:35:19.364Z,9.90
2018-05-11T19:40:47.523Z,10.87
2018-05-11T19:46:15.672Z,11.37
2018-05-11T19:51:43.819Z,12.03
2018-05-11T19:57:12.001Z,14.87
2018-05-11T20:02:40.156Z,12.13
2018-05-11T20:08:08.334Z,12.77
2018-05-11T20:13:36.497Z,13.37
2018-05-11T20:19:04.687Z,16.83
2018-05-11T20:24:32.856Z,20.73
2018-05-11T20:30:01.839Z,15.17
2018-05-11T20:35:29.984Z,27.70
2018-05-11T20:40:58.142Z,17.50
2018-05-11T20:46:27.071Z,16.33
2018-05-11T20:51:55.980Z,14.80
2018-05-11T20:57:24.120Z,15.43
2018-05-11T21:02:52.273Z,17.50
2018-05-11T21:08:20.430Z,16.80
2018-05-11T21:13:48.581Z,15.00
2018-05-11T21:19:16.742Z,15.80
2018-05-11T21:24:44.877Z,20.90
2018-05-11T21:30:13.039Z,16.77
2018-05-11T21:35:41.208Z,18.73
2018-05-11T21:41:09.426Z,18.00
2018-05-11T21:46:37.516Z,23.53
2018-05-11T21:52:07.437Z,19.57
2018-05-11T21:57:35.671Z,25.60
2018-05-11T22:03:04.081Z,17.87
2018-05-11T22:08:32.247Z,21.08
2018-05-11T22:14:01.185Z,16.60
2018-05-11T22:19:30.117Z,19.30
2018-05-11T22:24:59.024Z,21.70
2018-05-11T22:30:27.169Z,15.20
2018-05-11T22:35:56.076Z,21.90
2018-05-11T22:41:24.219Z,17.17
2018-05-11T22:46:52.365Z,19.00
2018-05-11T22:52:20.526Z,16.83
2018-05-11T22:57:48.664Z,20.00
2018-05-11T23:03:16.819Z,26.83
2018-05-11T23:08:44.988Z,22.30
2018-05-11T23:14:13.142Z,23.27
2018-05-11T23:19:42.180Z,20.33
2018-05-11T23:25:10.327Z,24.10
2018-05-11T23:30:38.491Z,24.70
2018-05-11T23:36:06.621Z,21.10
2018-05-11T23:41:34.785Z,24.80
2018-05-11T23:47:03.958Z,22.23
2018-05-11T23:52:32.147Z,23.73
2018-05-11T23:58:00.326Z,26.47
